Wetterstation Vordersexau
Wetterdaten: Woche 01.04.13 - 07.04.13 (KW14)
Datum Zeit Temp. A. Feuchte A. Luftdruck Regen Wind Richtung Taupunkt Windchill Windben
01.04.2013 00:00 -1,9 C 85 % 1006,5 hPa 0,0 l/m 0,0 km/h SO -4,1 C -1,9 C 0,0 km/h
01.04.2013 01:00 -0,9 C 86 % 1006,2 hPa 0,0 l/m 10,4 km/h SO -2,9 C -4,8 C 5,8 km/h
01.04.2013 02:00 -0,1 C 85 % 1005,8 hPa 0,0 l/m 0,0 km/h NO -2,3 C -0,1 C 0,0 km/h
01.04.2013 03:00 -1,9 C 86 % 1005,1 hPa 0,0 l/m 0,0 km/h S-SO -3,9 C -1,9 C 0,0 km/h
01.04.2013 04:00 -3,1 C 86 % 1004,6 hPa 0,0 l/m 0,0 km/h S-SW -5,1 C -3,1 C 0,0 km/h
01.04.2013 05:00 -3,2 C 86 % 1004,7 hPa 0,0 l/m 0,0 km/h S-SO -5,2 C -3,2 C 0,0 km/h
01.04.2013 06:00 -3,4 C 86 % 1004,3 hPa 0,0 l/m 0,0 km/h O-SO -5,4 C -3,4 C 0,0 km/h
01.04.2013 07:00 -3,1 C 85 % 1004,3 hPa 0,0 l/m 0,0 km/h SO -5,3 C -3,1 C 0,0 km/h
01.04.2013 08:00 -1,2 C 80 % 1004,1 hPa 0,0 l/m 0,0 km/h W-NW -4,2 C -1,2 C 0,0 km/h
01.04.2013 09:00 5,7 C 81 % 1003,8 hPa 0,0 l/m 0,0 km/h SW 2,7 C 5,7 C 0,0 km/h
01.04.2013 10:00 8,4 C 61 % 1003,5 hPa 0,0 l/m 0,0 km/h O-SO 1,3 C 8,4 C 0,0 km/h
01.04.2013 11:00 9,6 C 50 % 1003,5 hPa 0,0 l/m 0,0 km/h O-SO -0,3 C 9,6 C 0,0 km/h
01.04.2013 12:00 9,1 C 52 % 1003,4 hPa 0,0 l/m 0,0 km/h SO -0,2 C 9,1 C 0,0 km/h
01.04.2013 13:00 11,3 C 47 % 1003,1 hPa 0,0 l/m 0,0 km/h S 0,4 C 11,3 C 0,0 km/h
01.04.2013 14:00 12,1 C 45 % 1002,6 hPa 0,0 l/m 0,0 km/h S 0,5 C 12,1 C 0,0 km/h
01.04.2013 15:00 14,7 C 42 % 1001,9 hPa 0,0 l/m 2,6 km/h O-SO 1,9 C 14,7 C 1,4 km/h
01.04.2013 16:00 16,3 C 38 % 1001,6 hPa 0,0 l/m 3,2 km/h S-SW 2,0 C 16,3 C 1,8 km/h
01.04.2013 17:00 16,6 C 34 % 1001,3 hPa 0,0 l/m 1,9 km/h S 0,7 C 16,6 C 1,1 km/h
01.04.2013 18:00 15,4 C 34 % 1001,0 hPa 0,0 l/m 0,0 km/h S -0,4 C 15,4 C 0,0 km/h
01.04.2013 19:00 11,1 C 40 % 1001,2 hPa 0,0 l/m 0,0 km/h S-SW -2,0 C 11,1 C 0,0 km/h
01.04.2013 20:00 6,1 C 52 % 1001,8 hPa 0,0 l/m 0,0 km/h S-SW -3,0 C 6,1 C 0,0 km/h
01.04.2013 21:00 3,5 C 60 % 1002,4 hPa 0,0 l/m 3,2 km/h S -3,5 C 3,5 C 1,8 km/h
01.04.2013 22:00 2,5 C 65 % 1002,4 hPa 0,0 l/m 1,9 km/h SO -3,4 C 2,5 C 1,1 km/h
01.04.2013 23:00 -0,5 C 69 % 1002,1 hPa 0,0 l/m 0,0 km/h O -5,5 C -0,5 C 0,0 km/h
02.04.2013 00:00 -0,6 C 73 % 1002,1 hPa 0,0 l/m 0,0 km/h O -4,8 C -0,6 C 0,0 km/h
02.04.2013 01:00 -1,7 C 77 % 1002,0 hPa 0,0 l/m 0,0 km/h S-SW -5,2 C -1,7 C 0,0 km/h
02.04.2013 02:00 -2,6 C 79 % 1001,9 hPa 0,0 l/m 0,0 km/h S-SO -5,7 C -2,6 C 0,0 km/h
02.04.2013 03:00 -2,2 C 81 % 1002,0 hPa 0,0 l/m 0,0 km/h SW -5,0 C -2,2 C 0,0 km/h
02.04.2013 04:00 -3,0 C 82 % 1002,1 hPa 0,0 l/m 0,0 km/h SO -5,6 C -3,0 C 0,0 km/h
02.04.2013 05:00 -2,5 C 84 % 1001,7 hPa 0,0 l/m 0,0 km/h O-SO -4,8 C -2,5 C 0,0 km/h
02.04.2013 06:00 -1,3 C 83 % 1001,6 hPa 0,0 l/m 0,0 km/h N-NO -3,8 C -1,3 C 0,0 km/h
02.04.2013 07:00 -1,6 C 83 % 1001,8 hPa 0,0 l/m 1,3 km/h N -4,1 C -1,6 C 0,7 km/h
02.04.2013 08:00 -0,4 C 82 % 1002,4 hPa 0,0 l/m 0,0 km/h N-NO -3,1 C -0,4 C 0,0 km/h
02.04.2013 09:00 5,3 C 71 % 1002,5 hPa 0,0 l/m 0,0 km/h N-NO 0,5 C 5,3 C 0,0 km/h
02.04.2013 10:00 7,6 C 60 % 1002,7 hPa 0,0 l/m 0,0 km/h O-NO 0,3 C 7,6 C 0,0 km/h
02.04.2013 11:00 11,6 C 52 % 1003,0 hPa 0,0 l/m 0,0 km/h O-SO 2,1 C 11,6 C 0,0 km/h
02.04.2013 12:00 13,4 C 46 % 1002,7 hPa 0,0 l/m 0,0 km/h S-SW 2,0 C 13,4 C 0,0 km/h
02.04.2013 13:00 14,4 C 45 % 1002,7 hPa 0,0 l/m 7,8 km/h N-NO 2,6 C 13,6 C 4,3 km/h
02.04.2013 14:00 13,5 C 46 % 1002,4 hPa 0,0 l/m 3,9 km/h O 2,1 C 13,5 C 2,2 km/h
02.04.2013 15:00 15,8 C 39 % 1002,5 hPa 0,0 l/m 9,1 km/h SO 1,9 C 14,4 C 5,0 km/h
02.04.2013 16:00 15,6 C 42 % 1002,6 hPa 0,0 l/m 0,0 km/h W-NW 2,7 C 15,6 C 0,0 km/h
02.04.2013 17:00 17,9 C 37 % 1003,0 hPa 0,0 l/m 0,0 km/h O-SO 3,0 C 17,9 C 0,0 km/h
02.04.2013 18:00 9,6 C 49 % 1003,6 hPa 0,0 l/m 0,0 km/h SO -0,6 C 9,6 C 0,0 km/h
02.04.2013 19:00 7,4 C 57 % 1004,3 hPa 0,0 l/m 0,0 km/h SO -0,5 C 7,4 C 0,0 km/h
02.04.2013 20:00 3,9 C 65 % 1004,9 hPa 0,0 l/m 11,7 km/h SO -2,1 C -0,3 C 6,5 km/h
02.04.2013 21:00 3,5 C 68 % 1005,7 hPa 0,0 l/m 0,0 km/h SO -1,8 C 3,5 C 0,0 km/h
02.04.2013 22:00 2,7 C 71 % 1006,1 hPa 0,0 l/m 0,0 km/h SO -2,0 C 2,7 C 0,0 km/h
02.04.2013 23:00 2,9 C 73 % 1006,1 hPa 0,0 l/m 0,0 km/h O -1,5 C 2,9 C 0,0 km/h
03.04.2013 00:00 1,3 C 75 % 1006,3 hPa 0,0 l/m 0,0 km/h O -2,6 C 1,3 C 0,0 km/h
03.04.2013 01:00 -0,6 C 79 % 1006,6 hPa 0,0 l/m 0,0 km/h SO -3,8 C -0,6 C 0,0 km/h
03.04.2013 02:00 -1,5 C 82 % 1006,8 hPa 0,0 l/m 0,0 km/h SO -4,2 C -1,5 C 0,0 km/h
03.04.2013 03:00 -1,7 C 84 % 1006,9 hPa 0,0 l/m 0,0 km/h SO -4,0 C -1,7 C 0,0 km/h
03.04.2013 04:00 -1,5 C 85 % 1007,2 hPa 0,0 l/m 0,0 km/h SO -3,7 C -1,5 C 0,0 km/h
03.04.2013 05:00 -1,1 C 85 % 1007,4 hPa 0,0 l/m 0,0 km/h SO -3,3 C -1,1 C 0,0 km/h
03.04.2013 06:00 -0,7 C 85 % 1007,3 hPa 0,0 l/m 0,0 km/h O-SO -2,9 C -0,7 C 0,0 km/h
03.04.2013 07:00 -0,1 C 85 % 1007,5 hPa 0,0 l/m 0,0 km/h N-NW -2,3 C -0,1 C 0,0 km/h
03.04.2013 08:00 0,9 C 85 % 1007,5 hPa 0,0 l/m 0,0 km/h W-NW -1,3 C 0,9 C 0,0 km/h
03.04.2013 09:00 6,0 C 80 % 1007,3 hPa 0,0 l/m 0,0 km/h NW 2,8 C 6,0 C 0,0 km/h
03.04.2013 10:00 6,3 C 71 % 1007,6 hPa 0,0 l/m 0,0 km/h N 1,4 C 6,3 C 0,0 km/h
03.04.2013 11:00 6,1 C 72 % 1007,6 hPa 0,0 l/m 0,0 km/h W-NW 1,4 C 6,1 C 0,0 km/h
03.04.2013 12:00 9,8 C 62 % 1007,3 hPa 0,0 l/m 1,9 km/h SO 2,9 C 9,8 C 1,1 km/h
03.04.2013 13:00 10,9 C 55 % 1007,0 hPa 0,0 l/m 0,0 km/h SO 2,2 C 10,9 C 0,0 km/h
03.04.2013 14:00 11,9 C 51 % 1006,6 hPa 0,0 l/m 0,0 km/h O-SO 2,1 C 11,9 C 0,0 km/h
03.04.2013 15:00 10,2 C 54 % 1006,5 hPa 0,0 l/m 0,0 km/h S-SO 1,3 C 10,2 C 0,0 km/h
03.04.2013 16:00 9,9 C 55 % 1006,5 hPa 0,0 l/m 1,9 km/h SO 1,3 C 9,9 C 1,1 km/h
03.04.2013 17:00 8,9 C 57 % 1006,1 hPa 0,0 l/m 0,0 km/h O-SO 0,9 C 8,9 C 0,0 km/h
03.04.2013 18:00 7,4 C 58 % 1006,3 hPa 0,0 l/m 0,6 km/h S -0,3 C 7,4 C 0,4 km/h
03.04.2013 19:00 6,7 C 60 % 1006,9 hPa 0,0 l/m 9,1 km/h S -0,5 C 4,6 C 5,0 km/h
03.04.2013 20:00 5,7 C 62 % 1006,9 hPa 0,0 l/m 0,0 km/h S -1,0 C 5,7 C 0,0 km/h
03.04.2013 21:00 4,7 C 64 % 1007,0 hPa 0,0 l/m 0,0 km/h S -1,5 C 4,7 C 0,0 km/h
03.04.2013 22:00 3,5 C 69 % 1006,5 hPa 0,0 l/m 5,2 km/h S-SW -1,6 C 3,5 C 2,9 km/h
03.04.2013 23:00 1,3 C 72 % 1006,6 hPa 0,0 l/m 0,0 km/h SO -3,2 C 1,3 C 0,0 km/h
04.04.2013 00:00 -0,1 C 77 % 1006,1 hPa 0,0 l/m 0,0 km/h SO -3,6 C -0,1 C 0,0 km/h
04.04.2013 01:00 -0,9 C 80 % 1006,2 hPa 0,0 l/m 0,0 km/h S-SW -3,9 C -0,9 C 0,0 km/h
04.04.2013 02:00 -0,6 C 81 % 1006,1 hPa 0,0 l/m 0,0 km/h SO -3,4 C -0,6 C 0,0 km/h
04.04.2013 03:00 -0,9 C 83 % 1005,7 hPa 0,0 l/m 0,0 km/h W-SW -3,4 C -0,9 C 0,0 km/h
04.04.2013 04:00 -1,9 C 83 % 1005,5 hPa 0,0 l/m 0,0 km/h S -4,4 C -1,9 C 0,0 km/h
04.04.2013 05:00 -2,7 C 84 % 1005,4 hPa 0,0 l/m 0,0 km/h W-NW -5,0 C -2,7 C 0,0 km/h
04.04.2013 06:00 -3,4 C 85 % 1005,2 hPa 0,0 l/m 0,0 km/h W-NW -5,5 C -3,4 C 0,0 km/h
04.04.2013 07:00 -3,4 C 85 % 1005,1 hPa 0,0 l/m 0,0 km/h W-NW -5,5 C -3,4 C 0,0 km/h
04.04.2013 08:00 -1,6 C 85 % 1004,9 hPa 0,0 l/m 0,0 km/h N -3,8 C -1,6 C 0,0 km/h
04.04.2013 09:00 3,3 C 82 % 1005,2 hPa 0,0 l/m 0,0 km/h N-NW 0,5 C 3,3 C 0,0 km/h
04.04.2013 10:00 7,9 C 66 % 1005,1 hPa 0,0 l/m 1,9 km/h SO 1,9 C 7,9 C 1,1 km/h
04.04.2013 11:00 12,9 C 54 % 1004,8 hPa 0,0 l/m 0,0 km/h NO 3,8 C 12,9 C 0,0 km/h
04.04.2013 12:00 14,6 C 49 % 1004,0 hPa 0,0 l/m 0,0 km/h N 4,0 C 14,6 C 0,0 km/h
04.04.2013 13:00 14,4 C 48 % 1003,2 hPa 0,0 l/m 19,4 km/h N 3,5 C 9,1 C 10,8 km/h
04.04.2013 14:00 15,7 C 46 % 1002,7 hPa 0,0 l/m 7,8 km/h W 4,1 C 14,9 C 4,3 km/h
04.04.2013 15:00 15,9 C 45 % 1001,8 hPa 0,0 l/m 0,0 km/h N 4,0 C 15,9 C 0,0 km/h
04.04.2013 16:00 19,3 C 40 % 1000,8 hPa 0,0 l/m 3,2 km/h S-SO 5,4 C 19,3 C 1,8 km/h
04.04.2013 17:00 15,5 C 46 % 1000,7 hPa 0,0 l/m 0,0 km/h O-SO 3,9 C 15,5 C 0,0 km/h
04.04.2013 18:00 12,6 C 51 % 1000,6 hPa 0,0 l/m 8,4 km/h O-SO 2,7 C 11,3 C 4,7 km/h
04.04.2013 19:00 10,7 C 55 % 1000,7 hPa 0,0 l/m 0,0 km/h SO 2,0 C 10,7 C 0,0 km/h
04.04.2013 20:00 7,8 C 61 % 1000,8 hPa 0,0 l/m 0,0 km/h S-SW 0,8 C 7,8 C 0,0 km/h
04.04.2013 21:00 7,1 C 64 % 1001,0 hPa 0,0 l/m 11,7 km/h O-SO 0,8 C 3,3 C 6,5 km/h
04.04.2013 22:00 7,0 C 63 % 1001,4 hPa 0,0 l/m 0,0 km/h S 0,4 C 7,0 C 0,0 km/h
04.04.2013 23:00 5,1 C 69 % 1001,4 hPa 0,0 l/m 0,0 km/h SW -0,1 C 5,1 C 0,0 km/h
05.04.2013 00:00 4,1 C 70 % 1001,0 hPa 0,0 l/m 0,0 km/h S-SO -0,9 C 4,1 C 0,0 km/h
05.04.2013 01:00 2,4 C 76 % 1001,1 hPa 0,0 l/m 0,0 km/h SO -1,4 C 2,4 C 0,0 km/h
05.04.2013 02:00 0,7 C 79 % 1000,5 hPa 0,0 l/m 0,0 km/h S-SO -2,5 C 0,7 C 0,0 km/h
05.04.2013 03:00 0,4 C 82 % 1000,4 hPa 0,0 l/m 0,0 km/h O-NO -2,3 C 0,4 C 0,0 km/h
05.04.2013 04:00 0,4 C 82 % 1000,4 hPa 0,0 l/m 0,0 km/h N-NO -2,3 C 0,4 C 0,0 km/h
05.04.2013 05:00 0,2 C 84 % 1000,3 hPa 0,0 l/m 0,0 km/h NW -2,2 C 0,2 C 0,0 km/h
05.04.2013 06:00 -0,4 C 84 % 1000,6 hPa 0,0 l/m 0,0 km/h NW -2,8 C -0,4 C 0,0 km/h
05.04.2013 07:00 -0,1 C 84 % 1001,0 hPa 0,0 l/m 0,0 km/h N-NW -2,5 C -0,1 C 0,0 km/h
05.04.2013 08:00 0,6 C 85 % 1001,5 hPa 0,0 l/m 0,0 km/h N-NO -1,6 C 0,6 C 0,0 km/h
05.04.2013 09:00 1,8 C 82 % 1002,1 hPa 0,0 l/m 0,0 km/h N -0,9 C 1,8 C 0,0 km/h
05.04.2013 10:00 4,8 C 76 % 1002,4 hPa 0,0 l/m 0,0 km/h N-NW 0,9 C 4,8 C 0,0 km/h
05.04.2013 11:00 9,8 C 61 % 1002,7 hPa 0,0 l/m 5,2 km/h W 2,6 C 9,8 C 2,9 km/h
05.04.2013 12:00 10,1 C 59 % 1002,7 hPa 0,0 l/m 0,0 km/h W-NW 2,5 C 10,1 C 0,0 km/h
05.04.2013 13:00 12,8 C 53 % 1002,7 hPa 0,0 l/m 0,0 km/h S-SW 3,5 C 12,8 C 0,0 km/h
05.04.2013 14:00 13,5 C 51 % 1002,4 hPa 0,0 l/m 6,5 km/h O-SO 3,6 C 13,5 C 3,6 km/h
05.04.2013 15:00 13,4 C 50 % 1002,5 hPa 0,0 l/m 0,0 km/h NO 3,2 C 13,4 C 0,0 km/h
05.04.2013 16:00 12,8 C 49 % 1002,7 hPa 0,0 l/m 2,6 km/h NO 2,4 C 12,8 C 1,4 km/h
05.04.2013 17:00 11,0 C 52 % 1003,3 hPa 0,0 l/m 0,0 km/h O 1,5 C 11,0 C 0,0 km/h
05.04.2013 18:00 10,3 C 53 % 1003,9 hPa 0,0 l/m 0,0 km/h O 1,1 C 10,3 C 0,0 km/h
05.04.2013 19:00 8,1 C 59 % 1004,9 hPa 0,0 l/m 0,0 km/h NO 0,6 C 8,1 C 0,0 km/h
05.04.2013 20:00 5,8 C 65 % 1005,7 hPa 0,0 l/m 0,0 km/h N-NO -0,3 C 5,8 C 0,0 km/h
05.04.2013 21:00 4,7 C 69 % 1006,8 hPa 0,0 l/m 0,0 km/h N -0,5 C 4,7 C 0,0 km/h
05.04.2013 22:00 3,8 C 72 % 1007,8 hPa 0,0 l/m 1,9 km/h NW -0,8 C 3,8 C 1,1 km/h
05.04.2013 23:00 3,6 C 74 % 1008,4 hPa 0,0 l/m 0,0 km/h N-NW -0,6 C 3,6 C 0,0 km/h
06.04.2013 00:00 3,3 C 75 % 1008,6 hPa 0,0 l/m 0,0 km/h N-NW -0,7 C 3,3 C 0,0 km/h
06.04.2013 01:00 2,0 C 76 % 1008,6 hPa 0,0 l/m 0,0 km/h N-NW -1,8 C 2,0 C 0,0 km/h
06.04.2013 02:00 1,3 C 78 % 1008,9 hPa 0,0 l/m 0,0 km/h N-NW -2,1 C 1,3 C 0,0 km/h
06.04.2013 03:00 1,3 C 81 % 1009,1 hPa 0,0 l/m 0,0 km/h N-NW -1,6 C 1,3 C 0,0 km/h
06.04.2013 04:00 1,9 C 81 % 1009,1 hPa 0,0 l/m 0,0 km/h N-NW -1,0 C 1,9 C 0,0 km/h
06.04.2013 05:00 2,3 C 81 % 1009,4 hPa 0,0 l/m 0,0 km/h N -0,6 C 2,3 C 0,0 km/h
06.04.2013 06:00 2,4 C 81 % 1009,8 hPa 0,0 l/m 0,0 km/h N -0,5 C 2,4 C 0,0 km/h
06.04.2013 07:00 2,4 C 82 % 1010,1 hPa 0,0 l/m 0,0 km/h N -0,4 C 2,4 C 0,0 km/h
06.04.2013 08:00 3,1 C 81 % 1010,9 hPa 0,0 l/m 0,0 km/h N 0,2 C 3,1 C 0,0 km/h
06.04.2013 09:00 4,6 C 78 % 1011,4 hPa 0,0 l/m 2,6 km/h N 1,1 C 4,6 C 1,4 km/h
06.04.2013 10:00 6,6 C 72 % 1011,8 hPa 0,0 l/m 0,0 km/h NO 1,9 C 6,6 C 0,0 km/h
06.04.2013 11:00 7,3 C 68 % 1012,4 hPa 0,0 l/m 1,3 km/h O 1,8 C 7,3 C 0,7 km/h
06.04.2013 12:00 8,3 C 65 % 1012,9 hPa 0,0 l/m 18,8 km/h N-NO 2,1 C 1,5 C 10,4 km/h
06.04.2013 13:00 9,2 C 63 % 1012,9 hPa 0,0 l/m 0,0 km/h O 2,5 C 9,2 C 0,0 km/h
06.04.2013 14:00 10,1 C 60 % 1012,8 hPa 0,0 l/m 12,3 km/h O-SO 2,7 C 6,5 C 6,8 km/h
06.04.2013 15:00 10,8 C 58 % 1013,1 hPa 0,0 l/m 11,7 km/h O 2,9 C 7,6 C 6,5 km/h
06.04.2013 16:00 9,4 C 59 % 1013,0 hPa 0,0 l/m 11,0 km/h O-SO 1,8 C 6,4 C 6,1 km/h
06.04.2013 17:00 7,3 C 65 % 1013,4 hPa 0,0 l/m 0,0 km/h NO 1,2 C 7,3 C 0,0 km/h
06.04.2013 18:00 6,5 C 68 % 1014,1 hPa 0,0 l/m 0,0 km/h O-SO 1,0 C 6,5 C 0,0 km/h
06.04.2013 19:00 6,2 C 69 % 1014,6 hPa 0,0 l/m 2,6 km/h O-SO 0,9 C 6,2 C 1,4 km/h
06.04.2013 20:00 5,8 C 71 % 1015,4 hPa 0,0 l/m 1,9 km/h NO 1,0 C 5,8 C 1,1 km/h
06.04.2013 21:00 5,2 C 72 % 1016,3 hPa 0,0 l/m 0,0 km/h O 0,6 C 5,2 C 0,0 km/h
06.04.2013 22:00 4,7 C 74 % 1016,8 hPa 0,0 l/m 0,0 km/h N-NW 0,5 C 4,7 C 0,0 km/h
06.04.2013 23:00 4,1 C 76 % 1017,1 hPa 0,0 l/m 0,0 km/h O 0,3 C 4,1 C 0,0 km/h
07.04.2013 00:00 4,3 C 75 % 1017,1 hPa 0,0 l/m 0,0 km/h O 0,3 C 4,3 C 0,0 km/h
07.04.2013 01:00 4,2 C 74 % 1017,0 hPa 0,0 l/m 0,0 km/h O-SO -0,0 C 4,2 C 0,0 km/h
07.04.2013 02:00 4,0 C 74 % 1016,7 hPa 0,0 l/m 0,0 km/h O-NO -0,2 C 4,0 C 0,0 km/h
07.04.2013 03:00 3,9 C 74 % 1016,8 hPa 0,0 l/m 0,0 km/h O -0,3 C 3,9 C 0,0 km/h
07.04.2013 04:00 3,8 C 74 % 1016,7 hPa 0,0 l/m 0,0 km/h SO -0,4 C 3,8 C 0,0 km/h
07.04.2013 05:00 3,6 C 74 % 1016,8 hPa 0,0 l/m 0,0 km/h SO -0,6 C 3,6 C 0,0 km/h
07.04.2013 06:00 3,5 C 74 % 1017,1 hPa 0,0 l/m 0,0 km/h S-SO -0,7 C 3,5 C 0,0 km/h
07.04.2013 07:00 3,6 C 73 % 1017,5 hPa 0,0 l/m 0,0 km/h NO -0,8 C 3,6 C 0,0 km/h
07.04.2013 08:00 3,9 C 76 % 1017,5 hPa 0,0 l/m 0,0 km/h NW 0,1 C 3,9 C 0,0 km/h
07.04.2013 09:00 6,5 C 77 % 1017,4 hPa 0,0 l/m 0,0 km/h SO 2,8 C 6,5 C 0,0 km/h
07.04.2013 10:00 7,6 C 65 % 1017,5 hPa 0,0 l/m 0,0 km/h O-SO 1,5 C 7,6 C 0,0 km/h
07.04.2013 11:00 8,2 C 62 % 1017,2 hPa 0,0 l/m 0,0 km/h O-NO 1,4 C 8,2 C 0,0 km/h
07.04.2013 12:00 8,9 C 61 % 1016,6 hPa 0,0 l/m 0,0 km/h O-NO 1,8 C 8,9 C 0,0 km/h
07.04.2013 13:00 10,9 C 53 % 1016,3 hPa 0,0 l/m 7,1 km/h S-SO 1,7 C 10,4 C 4,0 km/h
07.04.2013 14:00 10,7 C 55 % 1016,1 hPa 0,0 l/m 0,0 km/h S-SO 2,0 C 10,7 C 0,0 km/h
07.04.2013 15:00 11,5 C 49 % 1015,0 hPa 0,0 l/m 0,0 km/h O 1,2 C 11,5 C 0,0 km/h
07.04.2013 16:00 17,3 C 36 % 1014,1 hPa 0,0 l/m 1,9 km/h S 2,1 C 17,3 C 1,1 km/h
07.04.2013 17:00 12,5 C 42 % 1013,6 hPa 0,0 l/m 0,0 km/h SO -0,1 C 12,5 C 0,0 km/h
07.04.2013 18:00 12,4 C 42 % 1012,8 hPa 0,0 l/m 0,0 km/h S -0,1 C 12,4 C 0,0 km/h
07.04.2013 19:00 7,9 C 52 % 1012,6 hPa 0,0 l/m 0,0 km/h S -1,3 C 7,9 C 0,0 km/h
07.04.2013 20:00 4,9 C 60 % 1012,4 hPa 0,0 l/m 3,2 km/h O-SO -2,2 C 4,9 C 1,8 km/h
07.04.2013 21:00 2,8 C 66 % 1011,9 hPa 0,0 l/m 0,0 km/h S-SO -2,9 C 2,8 C 0,0 km/h
07.04.2013 22:00 0,9 C 73 % 1011,6 hPa 0,0 l/m 0,0 km/h S-SW -3,4 C 0,9 C 0,0 km/h
07.04.2013 23:00 0,8 C 75 % 1011,2 hPa 0,0 l/m 1,9 km/h SW -3,1 C 0,8 C 1,1 km/h
Min-Datum _ 01.04.13 01.04.13 05.04.13 - 01.04.13 - 02.04.13 01.04.13 01.04.13
_ Min-Zeit 06:19 17:19 05:19 - 00:19 - 02:19 01:19 00:19
Minimum _ -3,4 C 34 % 1000,3 hPa - 0,0 km/h - -5,7 C -4,8 C 0,0 km/h
Max-Datum _ 04.04.13 01.04.13 07.04.13 01.04.13 04.04.13 - 04.04.13 04.04.13 04.04.13
_ Max-Zeit 16:19 01:19 07:19 00:19 13:19 - 16:19 16:19 13:19
Maximum _ 19,3 C 86 % 1017,5 hPa 0,0 l/m 19,4 km/h
N
- 5,4 C 19,3 C 10,8 km/h
N
Durchschnitt _ 5,5 C 67 % 1006,7 hPa #0,0 l/m 1,3 km/h SO -0,5 C 5,3 C 0,7 km/h
www.sexauwetter.de